Terminal Aerodrome Forecast
Issued by NWS

Home | Current Version | Previous Version | Text Only | Print | Product List | Glossary On
Versions: 1 2 3 4 5 6 7 8 9 10 11 12 13 14
000
FTUS46 KSEW 042300
TAFBFI
TAF
KBFI 042321Z 0500/0524 20009G20KT P6SM VCSH BKN045 BKN250
     FM050500 17010KT P6SM -SHRA BKN035
     FM051800 18006KT P6SM -SHRA BKN035 PROB30 0518/0524 4SM -TSRA
      BKN025CB=

USA.gov is the U.S. government's official web portal to all federal, state and local government web resources and services.